Time;durP1;ratioP1;P1;durP2;ratioP2;P2;SDS_P1;SDS_P2;PMS_P1;PMS_P2;Temp;Humidity;BMP_temperature;BMP_pressure;BME280_temperature;BME280_humidity;BME280_pressure;Samples;Min_cycle;Max_cycle;Signal;HPM_P1;HPM_P2
2020/12/02 00:02:12;;;;;;;48.97;30.77;;;2.70;99.90;;;;;;5067549;28;20020;-82
2020/12/02 00:04:38;;;;;;;56.05;32.45;;;2.80;99.90;;;;;;5058577;28;20063;-79
2020/12/02 00:07:05;;;;;;;57.30;31.15;;;2.70;99.90;;;;;;5057832;28;20025;-80
2020/12/02 00:09:31;;;;;;;52.47;30.77;;;2.70;99.90;;;;;;5059487;28;20021;-80
2020/12/02 00:11:57;;;;;;;57.30;32.28;;;2.70;99.90;;;;;;5054115;28;20108;-81
2020/12/02 00:14:26;;;;;;;57.72;32.72;;;2.70;99.90;;;;;;5061050;28;20073;-81
2020/12/02 00:16:53;;;;;;;54.10;32.83;;;2.70;99.90;;;;;;5067173;28;20032;-81
2020/12/02 00:19:19;;;;;;;52.88;31.38;;;2.60;99.90;;;;;;5076402;28;20020;-81
2020/12/02 00:22:10;;;;;;;57.30;32.38;;;2.60;99.90;;;;;;5069675;28;20033;-81
2020/12/02 00:24:36;;;;;;;57.47;31.35;;;2.60;99.90;;;;;;5059257;28;20040;-81
2020/12/02 00:27:13;;;;;;;58.13;33.50;;;2.60;99.90;;;;;;5058445;28;20040;-79
2020/12/02 00:29:39;;;;;;;57.25;31.90;;;2.60;99.90;;;;;;5056752;28;20077;-81
2020/12/02 00:32:05;;;;;;;56.70;31.90;;;2.60;99.90;;;;;;5057138;28;20752;-80
2020/12/02 00:34:30;;;;;;;50.38;30.27;;;2.60;99.90;;;;;;5059702;28;20021;-80
2020/12/02 00:36:56;;;;;;;56.58;32.35;;;2.60;99.90;;;;;;5055846;28;20035;-79
2020/12/02 00:39:21;;;;;;;56.83;31.08;;;2.60;99.90;;;;;;5056442;28;20029;-80
2020/12/02 00:41:48;;;;;;;57.58;32.30;;;2.50;99.90;;;;;;5057594;28;20033;-82
2020/12/02 00:44:14;;;;;;;53.70;31.90;;;2.50;99.90;;;;;;5059684;28;20048;-81
2020/12/02 00:46:40;;;;;;;50.42;30.35;;;2.50;99.90;;;;;;5061067;28;20047;-80
2020/12/02 00:49:06;;;;;;;59.00;30.60;;;2.50;99.90;;;;;;5052717;28;20442;-79
2020/12/02 00:51:31;;;;;;;55.53;32.03;;;2.50;99.90;;;;;;5073126;28;20085;-80
2020/12/02 00:53:57;;;;;;;53.00;31.85;;;2.50;99.90;;;;;;5058282;28;20270;-79
2020/12/02 00:56:22;;;;;;;48.83;29.23;;;2.50;99.90;;;;;;5053548;28;20066;-80
2020/12/02 00:59:08;;;;;;;54.03;32.72;;;2.50;99.90;;;;;;5049160;28;20028;-79
2020/12/02 01:01:51;;;;;;;50.05;30.73;;;2.50;99.90;;;;;;5056130;28;20029;-80
2020/12/02 01:04:18;;;;;;;54.50;32.40;;;2.50;99.90;;;;;;5078299;28;20195;-82
2020/12/02 01:06:46;;;;;;;54.45;31.30;;;2.40;99.90;;;;;;5063994;28;20024;-81
2020/12/02 01:09:14;;;;;;;52.50;30.50;;;2.40;99.90;;;;;;5063061;28;20016;-81
2020/12/02 01:11:41;;;;;;;52.50;31.17;;;2.40;99.90;;;;;;5063919;28;20028;-80
2020/12/02 01:14:11;;;;;;;53.30;30.73;;;2.40;99.90;;;;;;5063869;28;20406;-81
2020/12/02 01:16:42;;;;;;;55.53;32.58;;;2.40;99.90;;;;;;5075985;28;20021;-80
2020/12/02 01:19:10;;;;;;;52.60;29.42;;;2.40;99.90;;;;;;5060741;28;20035;-81
2020/12/02 01:22:00;;;;;;;56.75;32.42;;;2.40;99.90;;;;;;5062385;28;20028;-80
2020/12/02 01:24:36;;;;;;;54.97;33.58;;;2.30;99.90;;;;;;5078197;28;20036;-81
2020/12/02 01:27:18;;;;;;;52.47;29.63;;;2.30;99.90;;;;;;5057911;28;20055;-79
2020/12/02 01:29:47;;;;;;;55.22;31.05;;;2.20;99.90;;;;;;5061595;28;20020;-81
2020/12/02 01:32:14;;;;;;;56.72;33.28;;;2.20;99.90;;;;;;5079723;28;20031;-80
2020/12/02 01:34:40;;;;;;;52.97;31.83;;;2.20;99.90;;;;;;5065097;28;20056;-80
2020/12/02 01:37:06;;;;;;;63.05;34.42;;;2.20;99.90;;;;;;5065470;28;20080;-80
2020/12/02 01:39:36;;;;;;;54.97;32.22;;;2.20;99.90;;;;;;5081933;28;20058;-81
2020/12/02 01:42:03;;;;;;;60.90;32.45;;;2.20;99.90;;;;;;5066903;28;20490;-82
2020/12/02 01:44:29;;;;;;;52.55;31.45;;;2.20;99.90;;;;;;5061181;28;20477;-82
2020/12/02 01:47:11;;;;;;;53.60;31.33;;;2.20;99.90;;;;;;5078832;28;20033;-80
2020/12/02 01:50:21;;;;;;;49.30;29.92;;;2.20;99.90;;;;;;5054427;28;20025;-81
2020/12/02 01:53:03;;;;;;;52.92;30.88;;;2.30;99.90;;;;;;5070613;28;20029;-81
2020/12/02 01:55:39;;;;;;;47.85;28.30;;;2.30;99.90;;;;;;5064723;28;20472;-80
2020/12/02 01:58:17;;;;;;;53.47;30.05;;;2.30;99.90;;;;;;5047452;28;20520;-79
2020/12/02 02:00:48;;;;;;;51.30;30.30;;;2.30;99.90;;;;;;5058593;28;20029;-81
2020/12/02 02:03:17;;;;;;;55.90;30.02;;;2.30;99.90;;;;;;5080522;28;20028;-81
2020/12/02 02:05:58;;;;;;;53.83;29.83;;;2.40;99.90;;;;;;5062642;28;20024;-80
2020/12/02 02:08:29;;;;;;;46.75;28.92;;;2.40;99.90;;;;;;5072450;28;20029;-81
2020/12/02 02:10:56;;;;;;;49.20;28.25;;;2.40;99.90;;;;;;5064277;28;20051;-79
2020/12/02 02:13:47;;;;;;;50.40;28.85;;;2.40;99.90;;;;;;5063599;28;20024;-81
2020/12/02 02:16:44;;;;;;;51.58;28.05;;;2.40;99.90;;;;;;5064756;28;20695;-81
2020/12/02 02:19:20;;;;;;;48.53;29.00;;;2.40;99.90;;;;;;5064252;28;20024;-80
2020/12/02 02:21:48;;;;;;;;;;;2.40;99.90;;;;;;5064085;28;20475;-82
2020/12/02 02:24:13;;;;;;;48.47;27.67;;;2.40;99.90;;;;;;5068398;28;19959;-81
2020/12/02 02:26:48;;;;;;;49.63;29.05;;;2.40;99.90;;;;;;5051219;28;20232;-82
2020/12/02 02:29:21;;;;;;;50.25;27.00;;;2.40;99.90;;;;;;5058332;28;20220;-82
2020/12/02 02:31:57;;;;;;;52.05;28.65;;;2.40;99.90;;;;;;5063780;28;20078;-82
2020/12/02 02:34:23;;;;;;;48.85;29.05;;;2.40;99.90;;;;;;5064149;28;20115;-82
2020/12/02 02:36:48;;;;;;;53.10;30.55;;;2.40;99.90;;;;;;5072267;28;20035;-81
2020/12/02 02:39:15;;;;;;;50.78;31.65;;;2.40;99.90;;;;;;5074101;28;20056;-80
2020/12/02 02:41:41;;;;;;;50.78;29.92;;;2.30;99.90;;;;;;5063017;28;20036;-81
2020/12/02 02:44:09;;;;;;;56.40;31.02;;;2.30;99.90;;;;;;5079721;28;20367;-82
2020/12/02 02:46:35;;;;;;;49.25;29.38;;;2.30;99.90;;;;;;5078691;28;20269;-79
2020/12/02 02:49:00;;;;;;;54.92;31.13;;;2.30;99.90;;;;;;5055010;28;20025;-81
2020/12/02 02:51:26;;;;;;;50.00;28.73;;;2.20;99.90;;;;;;5071836;28;20033;-79
2020/12/02 02:53:52;;;;;;;54.00;31.27;;;2.20;99.90;;;;;;5060447;28;20028;-82
2020/12/02 02:56:17;;;;;;;52.92;29.30;;;2.20;99.90;;;;;;5053188;28;20058;-81
2020/12/02 02:58:43;;;;;;;59.13;30.48;;;2.30;99.90;;;;;;5056556;28;20021;-81
2020/12/02 03:01:09;;;;;;;48.40;29.92;;;2.30;99.90;;;;;;5050910;28;20025;-80
2020/12/02 03:03:34;;;;;;;51.22;30.25;;;2.30;99.90;;;;;;5062183;28;20028;-80
2020/12/02 03:06:02;;;;;;;54.88;29.80;;;2.30;99.90;;;;;;5071704;28;20106;-82
2020/12/02 03:08:28;;;;;;;53.03;28.08;;;2.30;99.90;;;;;;5078029;28;20074;-81
2020/12/02 03:10:57;;;;;;;52.70;31.02;;;2.30;99.90;;;;;;5055156;28;20048;-82
2020/12/02 03:13:49;;;;;;;54.38;30.38;;;2.30;99.90;;;;;;5070635;28;20024;-82
2020/12/02 03:16:23;;;;;;;50.53;30.05;;;2.40;99.90;;;;;;5052858;28;20005;-80
2020/12/02 03:18:49;;;;;;;52.60;29.73;;;2.30;99.90;;;;;;5053748;28;20024;-82
2020/12/02 03:21:18;;;;;;;51.20;28.88;;;2.30;99.90;;;;;;5066574;28;20107;-81
2020/12/02 03:23:44;;;;;;;51.15;30.42;;;2.40;99.90;;;;;;5052803;28;20021;-82
2020/12/02 03:26:11;;;;;;;52.08;30.10;;;2.40;99.90;;;;;;5051535;28;20035;-80
2020/12/02 03:28:37;;;;;;;52.08;30.17;;;2.40;99.90;;;;;;5055809;28;20024;-79
2020/12/02 03:31:07;;;;;;;45.28;27.40;;;2.40;99.90;;;;;;5071989;28;20029;-80
2020/12/02 03:33:33;;;;;;;50.92;29.48;;;2.40;99.90;;;;;;5072774;28;20041;-83
2020/12/02 03:35:58;;;;;;;51.15;29.17;;;2.40;99.90;;;;;;5054829;28;20036;-82
2020/12/02 03:38:24;;;;;;;44.55;28.75;;;2.40;99.90;;;;;;5058624;28;20056;-81
2020/12/02 03:40:50;;;;;;;50.00;27.95;;;2.40;99.90;;;;;;5058504;28;20028;-82
2020/12/02 03:43:16;;;;;;;48.75;28.67;;;2.40;99.90;;;;;;5070065;28;20028;-81
2020/12/02 03:45:44;;;;;;;45.40;27.90;;;2.40;99.90;;;;;;5059759;28;20031;-81
2020/12/02 03:48:13;;;;;;;44.83;27.30;;;2.30;99.90;;;;;;5056257;28;20161;-81
2020/12/02 03:50:40;;;;;;;49.65;27.75;;;2.40;99.90;;;;;;5056257;28;20391;-82
2020/12/02 03:53:07;;;;;;;50.40;30.02;;;2.40;99.90;;;;;;5080366;28;20028;-82
2020/12/02 03:55:34;;;;;;;47.88;29.25;;;2.40;99.90;;;;;;5047480;28;20039;-82
2020/12/02 03:57:59;;;;;;;44.45;26.85;;;2.40;99.90;;;;;;5074175;28;20021;-81
2020/12/02 04:00:25;;;;;;;47.45;28.67;;;2.40;99.90;;;;;;5053464;28;20029;-82
2020/12/02 04:02:51;;;;;;;46.17;28.40;;;2.40;99.90;;;;;;5051873;28;20020;-79
2020/12/02 04:05:17;;;;;;;44.05;27.00;;;2.40;99.90;;;;;;5065979;28;20021;-80
2020/12/02 04:07:42;;;;;;;47.70;27.23;;;2.40;99.90;;;;;;5071875;28;20025;-81
2020/12/02 04:10:08;;;;;;;46.55;28.02;;;2.40;99.90;;;;;;5062022;28;20024;-81
2020/12/02 04:12:34;;;;;;;43.53;26.83;;;2.40;99.90;;;;;;5077701;28;20020;-81
2020/12/02 04:14:59;;;;;;;47.65;28.65;;;2.40;99.90;;;;;;5071619;28;20127;-80
2020/12/02 04:17:26;;;;;;;48.80;29.38;;;2.40;99.90;;;;;;5074032;28;20046;-82
2020/12/02 04:19:51;;;;;;;46.65;27.70;;;2.40;99.90;;;;;;5056290;28;20127;-82
2020/12/02 04:22:17;;;;;;;44.63;27.98;;;2.40;99.90;;;;;;5052965;28;20118;-81
2020/12/02 04:24:42;;;;;;;49.60;30.25;;;2.40;99.90;;;;;;5058462;28;20061;-82
2020/12/02 04:27:08;;;;;;;48.25;28.33;;;2.40;99.90;;;;;;5051483;28;20092;-81
2020/12/02 04:29:33;;;;;;;42.78;26.77;;;2.40;99.90;;;;;;5057686;28;20429;-81
2020/12/02 04:31:59;;;;;;;42.50;27.10;;;2.40;99.90;;;;;;5057553;28;20024;-80
2020/12/02 04:34:25;;;;;;;49.38;28.88;;;2.40;99.90;;;;;;5055871;28;20036;-81
2020/12/02 04:36:51;;;;;;;49.78;28.38;;;2.40;99.90;;;;;;5051445;28;20017;-81
2020/12/02 04:39:17;;;;;;;42.90;26.75;;;2.40;99.90;;;;;;5052228;28;20036;-82
2020/12/02 04:41:43;;;;;;;50.38;28.58;;;2.40;99.90;;;;;;5059349;28;20096;-82
2020/12/02 04:44:10;;;;;;;41.70;26.20;;;2.50;99.90;;;;;;5068931;28;20047;-78
2020/12/02 04:46:37;;;;;;;43.75;26.80;;;2.50;99.90;;;;;;5058159;28;20020;-81
2020/12/02 04:49:23;;;;;;;50.17;29.30;;;2.50;99.90;;;;;;5058400;28;20130;-81
2020/12/02 04:51:53;;;;;;;47.15;27.73;;;2.40;99.90;;;;;;5076870;28;20029;-82
2020/12/02 04:54:19;;;;;;;43.67;27.27;;;2.40;99.90;;;;;;5060732;28;20039;-82
2020/12/02 04:56:47;;;;;;;47.15;27.38;;;2.40;99.90;;;;;;5056446;28;20017;-82
2020/12/02 04:59:13;;;;;;;44.28;25.55;;;2.40;99.90;;;;;;5052284;28;20024;-81
2020/12/02 05:01:47;;;;;;;45.60;26.58;;;2.40;99.90;;;;;;5051791;28;20078;-82
2020/12/02 05:04:25;;;;;;;45.33;27.02;;;2.50;99.90;;;;;;5055033;28;20028;-80
2020/12/02 05:07:05;;;;;;;45.42;26.95;;;2.40;99.90;;;;;;5070428;28;20025;-80
2020/12/02 05:09:32;;;;;;;43.05;25.48;;;2.40;99.90;;;;;;5080328;28;20093;-80
2020/12/02 05:12:14;;;;;;;43.40;26.20;;;2.50;99.90;;;;;;5062094;28;20021;-83
2020/12/02 05:14:42;;;;;;;47.72;27.13;;;2.40;99.90;;;;;;5061119;28;20045;-80
2020/12/02 05:17:16;;;;;;;44.42;26.98;;;2.50;99.90;;;;;;5060569;28;20086;-82
2020/12/02 05:19:44;;;;;;;45.70;26.45;;;2.40;99.90;;;;;;5062685;28;20021;-82
2020/12/02 05:22:16;;;;;;;44.25;25.55;;;2.50;99.90;;;;;;5077994;28;20035;-82
2020/12/02 05:24:50;;;;;;;44.05;27.05;;;2.50;99.90;;;;;;5066114;28;20029;-82
2020/12/02 05:27:19;;;;;;;41.10;25.00;;;2.50;99.90;;;;;;5060606;28;20020;-79
2020/12/02 05:29:53;;;;;;;45.47;26.40;;;2.50;99.90;;;;;;5067040;28;20026;-82
2020/12/02 05:32:29;;;;;;;48.55;27.08;;;2.50;99.90;;;;;;5074901;28;20029;-81
2020/12/02 05:34:56;;;;;;;43.47;26.95;;;2.50;99.90;;;;;;5071360;28;20033;-82
2020/12/02 05:37:33;;;;;;;42.97;26.02;;;2.50;99.90;;;;;;5068088;28;20075;-80
2020/12/02 05:40:04;;;;;;;47.00;28.17;;;2.50;99.90;;;;;;5067022;28;20056;-81
2020/12/02 05:42:34;;;;;;;45.53;25.98;;;2.50;99.90;;;;;;5066975;28;20029;-78
2020/12/02 05:45:21;;;;;;;41.83;24.95;;;2.50;99.90;;;;;;5065159;28;20029;-82
2020/12/02 05:47:52;;;;;;;45.47;27.20;;;2.50;99.90;;;;;;5081341;28;20441;-80
2020/12/02 05:50:19;;;;;;;44.67;26.15;;;2.50;99.90;;;;;;5069692;28;20052;-81
2020/12/02 05:52:49;;;;;;;41.40;26.58;;;2.50;99.90;;;;;;5071951;28;20029;-81
2020/12/02 05:55:24;;;;;;;42.63;25.77;;;2.50;99.90;;;;;;5069654;28;20069;-81
2020/12/02 05:58:03;;;;;;;47.42;26.50;;;2.50;99.90;;;;;;5063318;28;20028;-79
2020/12/02 06:00:31;;;;;;;48.72;28.52;;;2.50;99.90;;;;;;5084975;28;20080;-81
2020/12/02 06:02:58;;;;;;;48.40;29.40;;;2.50;99.90;;;;;;5051881;28;20048;-79
2020/12/02 06:05:27;;;;;;;48.60;28.98;;;2.50;99.90;;;;;;5066850;28;20693;-82
2020/12/02 06:07:55;;;;;;;50.38;28.83;;;2.50;99.90;;;;;;5069773;28;20025;-81
2020/12/02 06:10:41;;;;;;;44.00;28.23;;;2.40;99.90;;;;;;5070176;28;20023;-80
2020/12/02 06:13:11;;;;;;;;;;;2.40;99.90;;;;;;5085203;28;20080;-80
2020/12/02 06:15:38;;;;;;;43.42;23.95;;;2.40;99.90;;;;;;5069073;28;19927;-80
2020/12/02 06:18:26;;;;;;;42.53;25.63;;;2.40;99.90;;;;;;5069254;28;20028;-83
2020/12/02 06:20:53;;;;;;;44.17;26.10;;;2.40;99.90;;;;;;5087405;28;20036;-79
2020/12/02 06:23:18;;;;;;;43.22;25.92;;;2.40;99.90;;;;;;5069580;28;20028;-80
2020/12/02 06:25:55;;;;;;;45.10;26.15;;;2.40;99.90;;;;;;5070611;28;20032;-81
2020/12/02 06:28:44;;;;;;;42.17;25.50;;;2.50;99.90;;;;;;5069357;28;20031;-80
2020/12/02 06:31:24;;;;;;;41.40;25.48;;;2.40;99.90;;;;;;5068509;28;20012;-81
2020/12/02 06:33:50;;;;;;;43.47;27.08;;;2.50;99.90;;;;;;5071066;28;20021;-81
2020/12/02 06:36:30;;;;;;;44.65;28.27;;;2.50;99.90;;;;;;5070032;28;20024;-82
2020/12/02 06:39:05;;;;;;;43.33;26.77;;;2.50;99.90;;;;;;5084483;28;20028;-82
2020/12/02 06:41:43;;;;;;;45.30;27.43;;;2.50;99.90;;;;;;5062045;28;20016;-80
2020/12/02 06:44:12;;;;;;;43.53;26.75;;;2.50;99.90;;;;;;5063607;28;20073;-81
2020/12/02 06:46:55;;;;;;;46.45;26.83;;;2.40;99.90;;;;;;5065028;28;20020;-80
2020/12/02 06:49:27;;;;;;;47.90;28.20;;;2.40;99.90;;;;;;5066633;28;20024;-81
2020/12/02 06:52:05;;;;;;;44.10;26.70;;;2.40;99.90;;;;;;5056071;28;20517;-80
2020/12/02 06:54:36;;;;;;;45.28;27.58;;;2.50;99.90;;;;;;5078703;28;20024;-80
2020/12/02 06:57:06;;;;;;;44.00;27.10;;;2.50;99.90;;;;;;5056478;28;20024;-81
2020/12/02 06:59:31;;;;;;;45.92;26.50;;;2.50;99.90;;;;;;5064896;28;20031;-82
2020/12/02 07:02:09;;;;;;;44.95;26.13;;;2.50;99.90;;;;;;5064993;28;20116;-81
2020/12/02 07:04:36;;;;;;;41.17;25.65;;;2.50;99.90;;;;;;5065536;28;20063;-80
2020/12/02 07:07:03;;;;;;;46.80;27.70;;;2.50;99.90;;;;;;5058750;28;20027;-79
2020/12/02 07:09:28;;;;;;;44.97;27.65;;;2.50;99.90;;;;;;5064454;28;20036;-81
2020/12/02 07:11:58;;;;;;;48.30;27.67;;;2.50;99.90;;;;;;5080331;28;20029;-82
2020/12/02 07:14:33;;;;;;;41.70;25.75;;;2.50;99.90;;;;;;5081450;28;20017;-82
2020/12/02 07:17:00;;;;;;;37.40;25.58;;;2.50;99.90;;;;;;5080206;28;20019;-79
2020/12/02 07:19:30;;;;;;;40.28;25.67;;;2.50;99.90;;;;;;5067528;28;20012;-80
2020/12/02 07:22:05;;;;;;;41.88;26.15;;;2.50;99.90;;;;;;5059072;28;20092;-82
2020/12/02 07:24:37;;;;;;;43.53;27.65;;;2.50;99.90;;;;;;5053705;28;20088;-83
2020/12/02 07:27:04;;;;;;;39.75;26.75;;;2.50;99.90;;;;;;5063273;28;20023;-80
2020/12/02 07:29:31;;;;;;;41.75;24.52;;;2.50;99.90;;;;;;5062489;28;20105;-83
2020/12/02 07:32:04;;;;;;;40.28;25.88;;;2.50;99.90;;;;;;5064836;28;20032;-79
2020/12/02 07:34:31;;;;;;;39.47;27.13;;;2.50;99.90;;;;;;5063240;28;20020;-80
2020/12/02 07:37:00;;;;;;;44.00;26.20;;;2.50;99.90;;;;;;5063847;28;20115;-82
2020/12/02 07:39:26;;;;;;;42.88;26.55;;;2.50;99.90;;;;;;5053399;28;20020;-82
2020/12/02 07:42:00;;;;;;;41.92;25.73;;;2.50;99.90;;;;;;5057249;28;20020;-82
2020/12/02 07:44:28;;;;;;;42.72;26.05;;;2.50;99.90;;;;;;5047578;28;20016;-80
2020/12/02 07:46:59;;;;;;;40.47;26.40;;;2.50;99.90;;;;;;5050789;28;20071;-83
2020/12/02 07:49:25;;;;;;;42.83;26.60;;;2.50;99.90;;;;;;5066252;28;20024;-82
2020/12/02 07:52:01;;;;;;;44.30;26.73;;;2.50;99.90;;;;;;5055654;28;20025;-82
2020/12/02 07:54:29;;;;;;;44.72;26.27;;;2.60;99.90;;;;;;5060519;28;20017;-83
2020/12/02 07:56:55;;;;;;;37.60;25.20;;;2.60;99.90;;;;;;5059651;28;20025;-83
2020/12/02 07:59:25;;;;;;;45.38;27.77;;;2.60;99.90;;;;;;5052940;28;20027;-83
2020/12/02 08:02:00;;;;;;;38.53;23.65;;;2.60;99.90;;;;;;5050923;28;20064;-84
2020/12/02 08:04:49;;;;;;;41.05;24.85;;;2.60;99.90;;;;;;5055246;28;20085;-83
2020/12/02 08:07:16;;;;;;;39.85;25.80;;;2.60;99.90;;;;;;5074733;28;20069;-83
2020/12/02 08:09:47;;;;;;;42.55;27.08;;;2.60;99.90;;;;;;5075553;28;20233;-83
2020/12/02 08:12:18;;;;;;;42.67;28.00;;;2.60;99.90;;;;;;5071788;28;20052;-84
2020/12/02 08:14:59;;;;;;;38.53;25.00;;;2.60;99.90;;;;;;5057560;28;20445;-83
2020/12/02 08:17:26;;;;;;;47.03;27.13;;;2.60;99.90;;;;;;5068523;28;20048;-82
2020/12/02 08:19:59;;;;;;;38.60;26.20;;;2.60;99.90;;;;;;5059247;28;20025;-84
2020/12/02 08:22:43;;;;;;;44.97;26.73;;;2.70;99.90;;;;;;5079708;28;20107;-83
2020/12/02 08:25:25;;;;;;;39.92;26.13;;;2.60;99.90;;;;;;5052281;28;20028;-83
2020/12/02 08:28:00;;;;;;;46.13;28.00;;;2.70;99.90;;;;;;5071431;28;20028;-82
2020/12/02 08:30:29;;;;;;;43.97;28.08;;;2.70;99.90;;;;;;5072526;28;20032;-83
2020/12/02 08:33:00;;;;;;;38.13;25.35;;;2.60;99.90;;;;;;5063682;28;20020;-82
2020/12/02 08:35:34;;;;;;;42.78;26.88;;;2.60;99.90;;;;;;5062754;28;20025;-82
2020/12/02 08:38:01;;;;;;;42.97;26.00;;;2.60;99.90;;;;;;5054981;28;20504;-81
2020/12/02 08:40:31;;;;;;;41.55;27.25;;;2.70;99.90;;;;;;5068694;28;20097;-82
2020/12/02 08:43:23;;;;;;;39.92;26.38;;;2.70;99.90;;;;;;5066966;28;20020;-81
2020/12/02 08:46:19;;;;;;;42.40;26.65;;;2.70;99.90;;;;;;5063057;28;20043;-81
2020/12/02 08:48:49;;;;;;;39.17;25.80;;;2.70;99.90;;;;;;5051157;28;20043;-82
2020/12/02 08:51:20;;;;;;;42.53;26.83;;;2.70;99.90;;;;;;5051828;28;20025;-81
2020/12/02 08:53:46;;;;;;;43.03;27.58;;;2.70;99.90;;;;;;5064009;28;20120;-83
2020/12/02 08:56:33;;;;;;;40.72;26.38;;;2.70;99.90;;;;;;5053632;28;20036;-81
2020/12/02 08:59:00;;;;;;;36.08;24.52;;;2.80;99.90;;;;;;5070875;28;20040;-82
2020/12/02 09:01:25;;;;;;;41.40;26.85;;;2.80;99.90;;;;;;5066903;28;20024;-82
2020/12/02 09:03:52;;;;;;;39.35;24.80;;;2.80;99.90;;;;;;5059998;28;20025;-82
2020/12/02 09:06:19;;;;;;;43.33;27.02;;;2.80;99.90;;;;;;5053226;28;20086;-82
2020/12/02 09:08:45;;;;;;;38.60;26.88;;;2.80;99.90;;;;;;5069088;28;20017;-82
2020/12/02 09:11:15;;;;;;;36.55;25.35;;;2.80;99.90;;;;;;5059525;28;20023;-82
2020/12/02 09:13:41;;;;;;;43.15;26.10;;;2.90;99.90;;;;;;5068768;28;20017;-82
2020/12/02 09:16:07;;;;;;;40.10;26.10;;;2.90;99.90;;;;;;5060924;28;20008;-82
2020/12/02 09:18:33;;;;;;;45.03;27.20;;;3.00;99.90;;;;;;5066677;28;20024;-83
2020/12/02 09:20:58;;;;;;;38.20;24.52;;;3.00;99.90;;;;;;5071704;28;20024;-82
2020/12/02 09:23:24;;;;;;;42.55;25.67;;;3.00;99.90;;;;;;5066752;28;20028;-82
2020/12/02 09:25:49;;;;;;;36.35;25.40;;;3.00;99.90;;;;;;5072614;28;20024;-83
2020/12/02 09:28:15;;;;;;;38.15;25.55;;;3.10;99.90;;;;;;5065138;28;20489;-82
2020/12/02 09:30:40;;;;;;;39.25;27.13;;;3.10;99.90;;;;;;5070289;28;20028;-81
2020/12/02 09:33:06;;;;;;;40.05;24.48;;;3.10;99.90;;;;;;5053318;28;20040;-82
2020/12/02 09:35:31;;;;;;;38.78;25.63;;;3.10;99.90;;;;;;5056471;28;20021;-83
2020/12/02 09:37:57;;;;;;;39.85;24.63;;;3.20;99.90;;;;;;5052569;28;20029;-82
2020/12/02 09:40:22;;;;;;;35.33;25.00;;;3.20;99.90;;;;;;5065881;28;20648;-82
2020/12/02 09:42:57;;;;;;;35.05;23.40;;;3.20;99.90;;;;;;5065457;28;20033;-82
2020/12/02 09:46:00;;;;;;;35.78;23.85;;;3.20;99.90;;;;;;5057326;28;20017;-82
2020/12/02 09:48:27;;;;;;;33.92;23.67;;;3.20;99.90;;;;;;5063285;28;20019;-83
2020/12/02 09:50:54;;;;;;;35.92;23.70;;;3.20;99.90;;;;;;5052554;28;20047;-82
2020/12/02 09:53:25;;;;;;;40.00;26.30;;;3.20;99.90;;;;;;5064527;28;20059;-83
2020/12/02 09:55:50;;;;;;;34.17;23.10;;;3.20;99.90;;;;;;5055732;28;20017;-81
2020/12/02 09:58:17;;;;;;;36.95;23.65;;;3.20;99.90;;;;;;5054008;28;20131;-83
2020/12/02 10:00:42;;;;;;;34.72;24.40;;;3.20;99.90;;;;;;5061083;28;20096;-83
2020/12/02 10:03:34;;;;;;;38.78;25.83;;;3.20;99.90;;;;;;5051443;28;20070;-82
2020/12/02 10:06:11;;;;;;;37.72;23.40;;;3.20;99.90;;;;;;5056620;28;20029;-81
2020/12/02 10:08:47;;;;;;;37.70;23.33;;;3.20;99.90;;;;;;5060056;28;20055;-82
2020/12/02 10:11:48;;;;;;;38.85;25.95;;;3.20;99.90;;;;;;5074254;28;20025;-83
2020/12/02 10:14:32;;;;;;;38.13;26.50;;;3.20;99.90;;;;;;5075686;28;20020;-81
2020/12/02 10:17:22;;;;;;;39.40;24.50;;;3.20;99.90;;;;;;5062599;28;20063;-83
2020/12/02 10:20:22;;;;;;;34.85;23.58;;;3.20;99.90;;;;;;5061101;28;20134;-82
2020/12/02 10:23:05;;;;;;;32.88;23.35;;;3.20;99.90;;;;;;5054848;28;20025;-83
2020/12/02 10:25:59;;;;;;;33.15;22.38;;;3.20;99.90;;;;;;5060307;28;20040;-83
2020/12/02 10:28:40;;;;;;;34.92;24.05;;;3.20;99.90;;;;;;5058415;28;20025;-82
2020/12/02 10:31:19;;;;;;;34.63;24.17;;;3.20;99.90;;;;;;5079979;28;20115;-83
2020/12/02 10:34:02;;;;;;;35.78;24.30;;;3.10;99.90;;;;;;5049992;28;20024;-82
2020/12/02 10:36:37;;;;;;;35.10;23.63;;;3.10;99.90;;;;;;5048473;28;20021;-83
2020/12/02 10:39:09;;;;;;;37.30;24.20;;;3.20;99.90;;;;;;5054320;28;20082;-82
2020/12/02 10:41:47;;;;;;;34.55;23.40;;;3.10;99.90;;;;;;5058493;28;20124;-82
2020/12/02 10:44:51;;;;;;;37.83;24.05;;;3.10;99.90;;;;;;5072137;28;20043;-81
2020/12/02 10:47:32;;;;;;;35.47;24.80;;;3.10;99.90;;;;;;5075728;28;20017;-81
2020/12/02 10:49:59;;;;;;;34.17;23.73;;;3.10;99.90;;;;;;5054241;28;20109;-83
2020/12/02 10:52:25;;;;;;;37.50;23.48;;;3.10;99.90;;;;;;5051210;28;20017;-82
2020/12/02 10:54:51;;;;;;;36.22;24.45;;;3.10;99.90;;;;;;5058248;28;20025;-83
2020/12/02 10:57:21;;;;;;;34.92;22.35;;;3.10;99.90;;;;;;5053147;28;20017;-82
2020/12/02 10:59:51;;;;;;;38.25;25.13;;;3.20;99.90;;;;;;5043401;28;20106;-83
2020/12/02 11:02:21;;;;;;;38.15;24.52;;;3.10;99.90;;;;;;5068125;28;20051;-81
2020/12/02 11:04:50;;;;;;;34.05;23.35;;;3.20;99.90;;;;;;5059695;28;20027;-82
2020/12/02 11:07:28;;;;;;;38.03;24.58;;;3.10;99.90;;;;;;5051001;28;20047;-82
2020/12/02 11:10:23;;;;;;;39.65;24.58;;;3.10;99.90;;;;;;5058949;28;20021;-82
2020/12/02 11:13:03;;;;;;;36.90;22.83;;;3.10;99.90;;;;;;5074139;28;20110;-82
2020/12/02 11:15:45;;;;;;;35.30;22.95;;;3.10;99.90;;;;;;5073061;28;20032;-82
2020/12/02 11:18:26;;;;;;;35.67;23.92;;;3.20;99.90;;;;;;5064526;28;20008;-81
2020/12/02 11:21:11;;;;;;;36.45;23.55;;;3.20;99.90;;;;;;5068898;28;20009;-80
2020/12/02 11:24:02;;;;;;;35.95;23.55;;;3.20;99.90;;;;;;5081185;28;20028;-81
2020/12/02 11:26:31;;;;;;;36.28;23.30;;;3.20;99.90;;;;;;5080664;28;20054;-82
2020/12/02 11:28:59;;;;;;;34.95;22.70;;;3.20;99.90;;;;;;5074192;28;20039;-81
2020/12/02 11:31:39;;;;;;;32.50;22.50;;;3.20;99.90;;;;;;5058553;28;20044;-82
2020/12/02 11:34:35;;;;;;;33.50;22.95;;;3.20;99.90;;;;;;5072633;28;20038;-82
2020/12/02 11:37:07;;;;;;;33.92;22.95;;;3.20;99.90;;;;;;5078752;28;20032;-82
2020/12/02 11:39:44;;;;;;;34.53;23.85;;;3.20;99.90;;;;;;5078381;28;20096;-81
2020/12/02 11:42:51;;;;;;;35.72;23.58;;;3.20;99.90;;;;;;5081322;28;20043;-81
2020/12/02 11:45:23;;;;;;;33.10;22.33;;;3.20;99.90;;;;;;5066499;28;20016;-81
2020/12/02 11:48:02;;;;;;;33.15;23.23;;;3.20;99.90;;;;;;5079529;28;20025;-80
2020/12/02 11:51:12;;;;;;;36.67;23.88;;;3.20;99.90;;;;;;5074487;28;20273;-81
2020/12/02 11:53:54;;;;;;;33.30;22.83;;;3.10;99.90;;;;;;5061329;28;20040;-84
2020/12/02 11:56:28;;;;;;;34.17;24.73;;;3.20;99.90;;;;;;5077181;28;20032;-81
2020/12/02 11:59:02;;;;;;;32.00;22.13;;;3.10;99.90;;;;;;5066583;28;20040;-82
2020/12/02 12:01:53;;;;;;;34.53;24.48;;;3.10;99.90;;;;;;5063839;28;20029;-81
2020/12/02 12:04:22;;;;;;;32.88;20.77;;;3.10;99.90;;;;;;5078347;28;20055;-80
2020/12/02 12:06:53;;;;;;;35.67;22.98;;;3.20;99.90;;;;;;5052423;28;20103;-82
2020/12/02 12:09:46;;;;;;;32.05;22.10;;;3.20;99.90;;;;;;5047397;28;20017;-82
2020/12/02 12:12:14;;;;;;;34.90;23.58;;;3.10;99.90;;;;;;5024629;28;20174;-81
2020/12/02 12:15:06;;;;;;;35.72;22.33;;;3.20;99.90;;;;;;5079336;28;20028;-81
2020/12/02 12:17:39;;;;;;;33.50;22.63;;;3.20;99.90;;;;;;5052832;28;20029;-81
2020/12/02 12:20:15;;;;;;;29.60;21.05;;;3.10;99.90;;;;;;5062578;28;20689;-82
2020/12/02 12:22:47;;;;;;;35.40;22.77;;;3.20;99.90;;;;;;5057047;28;20060;-81
2020/12/02 12:25:24;;;;;;;32.42;22.17;;;3.20;99.90;;;;;;5058568;28;20021;-82
2020/12/02 12:27:56;;;;;;;35.22;22.70;;;3.10;99.90;;;;;;5055975;28;20111;-80
2020/12/02 12:30:21;;;;;;;32.75;23.38;;;3.20;99.90;;;;;;5054309;28;20017;-81
2020/12/02 12:33:06;;;;;;;32.17;22.42;;;3.20;99.90;;;;;;5059513;28;20114;-82
2020/12/02 12:35:39;;;;;;;32.97;22.35;;;3.20;99.90;;;;;;5052689;28;20765;-83
2020/12/02 12:38:40;;;;;;;32.95;22.55;;;3.20;99.90;;;;;;5074903;28;20021;-84
2020/12/02 12:41:17;;;;;;;32.08;22.88;;;3.20;99.90;;;;;;5045839;28;20054;-82
2020/12/02 12:43:47;;;;;;;34.55;23.17;;;3.20;99.90;;;;;;5051784;28;20023;-83
2020/12/02 12:46:25;;;;;;;30.70;21.85;;;3.20;99.90;;;;;;5059355;28;20074;-83
2020/12/02 12:48:53;;;;;;;33.55;22.23;;;3.20;99.90;;;;;;5055331;28;20040;-83
2020/12/02 12:51:21;;;;;;;32.75;22.85;;;3.20;99.90;;;;;;5060196;28;20066;-83
2020/12/02 12:53:49;;;;;;;35.22;23.45;;;3.20;99.90;;;;;;5060233;28;20028;-83
2020/12/02 12:56:15;;;;;;;34.00;23.15;;;3.20;99.90;;;;;;5055790;28;21307;-82
2020/12/02 12:58:41;;;;;;;37.00;25.63;;;3.20;99.90;;;;;;5067892;28;20033;-84
2020/12/02 13:01:09;;;;;;;35.25;22.00;;;3.20;99.90;;;;;;5062297;28;20039;-80
2020/12/02 13:03:36;;;;;;;33.25;23.27;;;3.30;99.90;;;;;;5060804;28;20035;-82
2020/12/02 13:06:33;;;;;;;32.80;22.10;;;3.30;99.90;;;;;;5044308;28;20029;-82